Terminal Aerodrome Forecast
Issued by NWS

Home | Current Version | Previous Version | Text Only | Print | Product List | Glossary On
Versions: 1 2 3 4 5 6 7 8 9 10 11 12 13 14 15 16 17 18
000
FTUS43 KILX 261700
TAFBMI
TAF
KBMI 261729Z 2618/2718 19012G20KT P6SM SCT100 BKN250
     FM262300 19013KT P6SM BKN025
     FM270600 18012KT 4SM -DZ BR OVC015 WS020/22040KT
      TEMPO 2711/2715 -RA OVC007=

USA.gov is the U.S. government's official web portal to all federal, state and local government web resources and services.